FAHE weather

Pullenshope Hendrina Airport
Hendrina, Mpumalanga, South Africa

Public forecast

Using degrees Celsius for public forecast. Weather courtesy of forecast.io.

Closest aviation weather report (METAR) to Pullenshope Hendrina Airport

Closest report is Ermelo Airport, 36.7 nm (67.9 km) SSE. Retrieved 2019/10/16 05:19 UTC (19 minutes ago):

FAEO 160519Z 10006KT 9999 SCT015 14/10 Q1031

Closest aviation forecast (TAF) to Pullenshope Hendrina Airport

Forecast is more than 12 hours old.

Closest forecast is Ermelo Airport, 36.7 nm (67.9 km) SSE. Retrieved 2017/06/05 04:55 UTC (2 years ago):

TAF FAEO 050300Z 0504/0515 09006KT CAVOK TX18/0513ZTN05/0504Z